• Join FlightAware (Why Join?)
  • Login
  • US Flag 
04:29AM EDT


 

Airport Tracker/Info


-or-


 

Live Flight TrackerFlight Track Log ✈ VH-JPO ✈ 02-May-2012 ✈ YBSU / MCY - YDYS / DYA

Flight Track Log - Related Links

Times and Time Zones

All times are in EDT time to prevent confusion due to time zone crossing. See the VH-JPO flight status page for this flight to view local times or setup timezone preferences in your user account.

Time Position Orientation Groundspeed Altitude Reporting Facility
EDT Latitude Longitude Course Direction KTS MPH feet Rate Location/Type
05:23PM -26.6034 153.0910 320° Northwest 6,000  Level Aus ATC (Calculated)
05:24PM -26.5734 153.0629 285° West 143 165 2,700 -2,040 Descending Aus ATC (RADAR)
05:24PM -26.5670 153.0354 298° West 149 171 3,200 660 Climbing Aus ATC (RADAR)
05:25PM -26.5502 152.9998 310° West 155 178 3,700 480 Climbing Aus ATC (RADAR)
05:27PM -26.4832 152.9091 320° Northwest 164 189 4,900 480 Climbing Aus ATC (RADAR)
05:28PM -26.4663 152.8932 316° Northwest 157 181 5,200 420 Climbing Aus ATC (RADAR)
05:28PM -26.4473 152.8729 311° West 156 180 5,400 480 Climbing Aus ATC (RADAR)
05:29PM -26.4250 152.8445 310° West 153 176 5,900 240 Climbing Aus ATC (RADAR)
05:30PM -26.3962 152.8060 308° West 171 197 5,900  Level Aus ATC (RADAR)
05:32PM -26.3415 152.7276 307° West 173 199 6,000  Climbing Aus ATC (RADAR)
05:33PM -26.3174 152.6925 307° West 167 192 6,000  Level Aus ATC (RADAR)
05:33PM -26.3006 152.6678 309° West 170 196 6,000  Level Aus ATC (RADAR)
05:34PM -26.2738 152.6302 306° West 164 189 6,000  Level Aus ATC (RADAR)
05:35PM -26.2570 152.6046 307° West 171 197 6,000  Level Aus ATC (RADAR)
05:36PM -26.2352 152.5725 309° West 170 196 6,000  Level Aus ATC (RADAR)
05:37PM -26.2008 152.5247 309° West 168 193 6,000  Level Aus ATC (RADAR)
05:38PM -26.1758 152.4900 308° West 169 194 6,000  Level Aus ATC (RADAR)
05:38PM -26.1511 152.4552 308° West 171 197 6,000  Level Aus ATC (RADAR)
05:39PM -26.1263 152.4199 313° West 170 196 6,000  Level Aus ATC (RADAR)
05:40PM -26.1053 152.3949 304° West 161 185 6,000  Level Aus ATC (RADAR)
05:41PM -26.0799 152.3533 308° West 167 192 6,000  Level Aus ATC (RADAR)
05:42PM -26.0457 152.3039 309° West 172 198 6,000  Level Aus ATC (RADAR)
05:43PM -26.0260 152.2764 310° West 172 198 6,000  Level Aus ATC (RADAR)
05:44PM -26.0004 152.2425 310° West 169 194 6,000 60 Level Aus ATC (RADAR)
05:44PM -25.9749 152.2089 311° West 167 192 6,100 -60 Climbing Aus ATC (RADAR)
06:09PM -25.2350 151.2699 315° West 163 188 5,900 -60 Descending Aus ATC (RADAR)
06:10PM -25.2032 151.2349 315° West 161 185 5,900  Level Aus ATC (RADAR)
06:10PM -25.1789 151.2079 314° West 164 189 5,900  Level Aus ATC (RADAR)
06:11PM -25.1603 151.1867 314° West 162 186 5,900  Level Aus ATC (RADAR)
06:12PM -25.1362 151.1591 317° Northwest 165 190 5,900 60 Level Aus ATC (RADAR)
06:12PM -25.1196 151.1419 313° West 162 186 6,000 60 Climbing Aus ATC (RADAR)
06:13PM -25.0882 151.1044 315° West 166 191 6,000  Level Aus ATC (RADAR)
06:14PM -25.0691 151.0830 314° West 164 189 6,000 -120 Level Aus ATC (RADAR)
06:14PM -25.0502 151.0615 312° West 164 189 5,900 -120 Descending Aus ATC (RADAR)
06:15PM -25.0242 151.0295 312° West 167 192 5,900 60 Level Aus ATC (RADAR)
06:16PM -25.0061 151.0074 312° West 165 190 6,000 60 Climbing Aus ATC (RADAR)
06:16PM -24.9826 150.9787 313° West 168 193 6,000  Level Aus ATC (RADAR)
06:18PM -24.9323 150.9192 314° West 165 190 6,000  Level Aus ATC (RADAR)
06:19PM -24.9161 150.9010 313° West 165 190 6,000  Level Aus ATC (RADAR)
06:19PM -24.8892 150.8692 314° West 169 194 6,000 -120 Level Aus ATC (RADAR)
06:20PM -24.8643 150.8404 316° Northwest 171 197 5,900 -120 Descending Aus ATC (RADAR)
06:21PM -24.8416 150.8158 315° West 171 197 5,900 60 Level Aus ATC (RADAR)
06:22PM -24.8167 150.7886 315° West 167 192 6,000  Climbing Aus ATC (RADAR)
06:23PM -24.7534 150.7191 315° West 166 191 6,000  Level Aus ATC (RADAR)
06:24PM -24.7342 150.6977 314° West 166 191 6,000 -120 Level Aus ATC (RADAR)
06:25PM -24.7069 150.6665 313° West 169 194 5,900  Descending Aus ATC (RADAR)
06:26PM -24.6799 150.6352 315° West 169 194 6,000  Climbing Aus ATC (RADAR)
06:26PM -24.6578 150.6105 315° West 169 194 5,900  Descending Aus ATC (RADAR)
06:27PM -24.6328 150.5827 315° West 170 196 6,000  Climbing Aus ATC (RADAR)
06:29PM -24.5686 150.5109 315° West 171 197 6,000  Level Aus ATC (RADAR)
06:30PM -24.5519 150.4925 316° Northwest 170 196 6,000  Level Aus ATC (RADAR)
06:30PM -24.5352 150.4749 314° West 167 192 6,000  Level Aus ATC (RADAR)
06:31PM -24.5076 150.4433 313° West 170 196 6,000  Level Aus ATC (RADAR)
06:31PM -24.4884 150.4210 314° West 171 197 6,000 -120 Level Aus ATC (RADAR)
06:32PM -24.4599 150.3891 313° West 174 200 5,900  Descending Aus ATC (RADAR)
06:34PM -24.4106 150.3313 315° West 173 199 6,000  Climbing Aus ATC (RADAR)
06:35PM -24.3763 150.2943 316° Northwest 173 199 6,000  Level Aus ATC (RADAR)
06:36PM -24.3472 150.2636 316° Northwest 174 200 6,000  Level Aus ATC (RADAR)
06:36PM -24.3268 150.2421 311° West 173 199 6,000  Level Aus ATC (RADAR)
06:37PM -24.3105 150.2217 311° West 178 205 6,000 -120 Level Aus ATC (RADAR)
06:37PM -24.2894 150.1948 315° West 175 201 5,900  Descending Aus ATC (RADAR)
06:38PM -24.2691 150.1722 313° West 176 203 6,000  Climbing Aus ATC (RADAR)
06:39PM -24.2354 150.1332 314° West 176 203 5,900  Descending Aus ATC (RADAR)
06:40PM -24.2016 150.0947 314° West 176 203 6,000  Climbing Aus ATC (RADAR)
06:41PM -24.1733 150.0626 315° West 175 201 6,000  Level Aus ATC (RADAR)
06:41PM -24.1531 150.0404 315° West 175 201 6,000  Level Aus ATC (RADAR)
06:42PM -24.1267 150.0116 314° West 177 204 6,000  Level Aus ATC (RADAR)
06:43PM -24.0921 149.9729 314° West 177 204 6,000 -60 Level Aus ATC (RADAR)
06:44PM -24.0547 149.9306 315° West 178 205 5,900 -120 Descending Aus ATC (RADAR)
06:45PM -24.0368 149.9110 313° West 180 207 5,900 60 Level Aus ATC (RADAR)
06:45PM -24.0172 149.8879 314° West 177 204 6,000 60 Climbing Aus ATC (RADAR)
06:46PM -23.9884 149.8556 313° West 177 204 6,000  Level Aus ATC (RADAR)
06:47PM -23.9691 149.8328 314° West 176 203 6,000  Level Aus ATC (RADAR)
06:47PM -23.9436 149.8039 315° West 175 201 6,000  Level Aus ATC (RADAR)
06:48PM -23.9262 149.7851 315° West 176 203 6,000  Level Aus ATC (RADAR)
06:49PM -23.8924 149.7477 314° West 172 198 6,000  Level Aus ATC (RADAR)
06:50PM -23.8668 149.7191 315° West 175 201 6,000  Level Aus ATC (RADAR)
06:51PM -23.8347 149.6844 315° West 176 203 6,000  Level Aus ATC (RADAR)
06:51PM -23.8143 149.6624 316° Northwest 176 203 6,000 -120 Level Aus ATC (RADAR)
06:52PM -23.7933 149.6402 314° West 179 206 5,900 -120 Descending Aus ATC (RADAR)
06:53PM -23.7677 149.6116 316° Northwest 177 204 5,900  Level Aus ATC (RADAR)
06:55PM -23.6977 149.5371 315° West 176 203 5,900  Level Aus ATC (RADAR)
06:55PM -23.6775 149.5149 316° Northwest 177 204 5,900 60 Level Aus ATC (RADAR)
06:56PM -23.6399 149.4748 316° Northwest 174 200 6,000  Climbing Aus ATC (RADAR)
06:57PM -23.6108 149.4441 314° West 174 200 6,000  Level Aus ATC (RADAR)
06:58PM -23.5917 149.4227 317° Northwest 168 193 6,000  Level Aus ATC (RADAR)
06:58PM -23.5620 149.3926 316° Northwest 175 201 6,000  Level Aus ATC (RADAR)
07:00PM -23.5042 149.3309 314° West 174 200 6,000  Level Aus ATC (RADAR)
07:01PM -23.4760 149.2994 315° West 173 199 6,000  Level Aus ATC (RADAR)
07:02PM -23.4503 149.2714 314° West 174 200 6,000  Level Aus ATC (RADAR)
07:03PM -23.4136 149.2306 315° West 174 200 6,000  Level Aus ATC (RADAR)
07:03PM -23.3908 149.2056 316° Northwest 175 201 6,000  Level Aus ATC (RADAR)
07:05PM -23.3364 149.1475 315° West 171 197 6,000  Level Aus ATC (RADAR)
07:06PM -23.3077 149.1167 315° West 173 199 6,000  Level Aus ATC (RADAR)
07:07PM -23.2795 149.0864 316° Northwest 171 197 6,000  Level Aus ATC (RADAR)
07:07PM -23.2593 149.0654 316° Northwest 170 196 6,000  Level Aus ATC (RADAR)
07:08PM -23.2334 149.0380 316° Northwest 173 199 6,000 -120 Level Aus ATC (RADAR)
07:09PM -23.2159 149.0197 315° West 175 201 5,900 -60 Descending Aus ATC (RADAR)
07:10PM -23.1675 148.9673 313° West 176 203 5,900  Level Aus ATC (RADAR)
07:11PM -23.1376 148.9330 315° West 172 198 5,900  Level Aus ATC (RADAR)
07:12PM -23.1095 148.9024 315° West 171 197 5,900 60 Level Aus ATC (RADAR)
07:12PM -23.0870 148.8778 314° West 171 197 6,000 120 Climbing Aus ATC (RADAR)
07:13PM -23.0708 148.8592 317° Northwest 171 197 6,100  Climbing Aus ATC (RADAR)
07:15PM -22.9839 148.7699 313° West 161 185 6,000 -60 Descending Aus ATC (RADAR)
07:16PM -22.9523 148.7328 319° Northwest 179 206 6,000  Level Aus ATC (RADAR)
07:17PM -22.9289 148.7107 313° West 172 198 6,000 -60 Level Aus ATC (RADAR)
07:18PM -22.8831 148.6571 316° Northwest 186 214 5,900 -480 Descending Aus ATC (RADAR)
07:21PM -22.7837 148.5536 309° West 196 226 4,300 -600 Descending Aus ATC (RADAR)
07:21PM -22.7622 148.5244 316° Northwest 205 236 4,100 -540 Descending Aus ATC (RADAR)
07:23PM -22.6959 148.4552 315° West 176 203 3,100 -660 Descending Aus ATC (RADAR)
07:24PM -22.6655 148.4223 309° West 187 215 2,500 -780 Descending Aus ATC (RADAR)
07:32PM -22.4340 148.1105 129° Southeast  Level Estimated
07:33PM -22.6222 148.3638 105° East  Level FlightAware Approximate
07:34PM -22.6346 148.4140 285° West  Level Estimated
07:35PM -22.6222 148.3638 105° East  Level FlightAware Approximate
07:36PM -22.6346 148.4140 285° West  Level Estimated
07:37PM -22.6222 148.3638 105° East  Level FlightAware Approximate
07:38PM -22.6346 148.4140 285° West  Level Estimated
07:39PM -22.6222 148.3638 105° East  Level FlightAware Approximate
07:40PM -22.6346 148.4140 105° East  Level Estimated